createdAt,value
2023-03-17T02:56:39.435Z,416.00
2023-03-17T03:00:39.666Z,412.00
2023-03-17T03:04:39.911Z,413.00
2023-03-17T03:08:40.115Z,414.00
2023-03-17T03:12:40.352Z,408.00
2023-03-17T03:16:40.573Z,412.00
2023-03-17T03:20:40.808Z,412.00
2023-03-17T03:24:41.019Z,411.00
2023-03-17T03:28:41.247Z,414.00
2023-03-17T03:32:41.532Z,412.00
2023-03-17T03:36:41.719Z,414.00
2023-03-17T03:40:41.922Z,414.00
2023-03-17T06:24:48.631Z,436.00
2023-03-17T06:28:48.638Z,430.00
2023-03-17T06:36:48.733Z,430.00
2023-03-17T06:40:49.149Z,436.00
2023-03-17T06:44:49.143Z,468.00
2023-03-17T06:52:49.159Z,556.00
2023-03-17T06:56:49.208Z,574.00
2023-03-17T07:00:49.649Z,652.00
2023-03-17T07:04:49.731Z,737.00
2023-03-17T07:08:49.642Z,771.00
2023-03-17T07:12:50.185Z,776.00
2023-03-17T07:16:49.783Z,795.00
2023-03-17T07:20:50.194Z,814.00
2023-03-17T07:24:50.146Z,814.00
2023-03-17T07:28:50.199Z,810.00
2023-03-17T07:32:50.246Z,812.00
2023-03-17T07:36:50.706Z,821.00
2023-03-17T07:40:50.706Z,829.00
2023-03-17T07:44:50.654Z,844.00
2023-03-17T07:48:50.670Z,858.00
2023-03-17T07:56:50.663Z,876.00
2023-03-17T08:00:50.193Z,882.00
2023-03-17T08:04:50.167Z,906.00
2023-03-17T08:08:50.187Z,914.00
2023-03-17T08:16:51.027Z,911.00
2023-03-17T08:24:50.236Z,907.00
2023-03-17T08:28:50.192Z,893.00
2023-03-17T08:32:50.297Z,911.00
2023-03-17T08:36:50.169Z,891.00
2023-03-17T08:40:50.626Z,883.00
2023-03-17T08:44:49.831Z,860.00
2023-03-17T08:48:50.220Z,868.00
2023-03-17T08:52:50.229Z,862.00
2023-03-17T08:56:50.705Z,697.00
2023-03-17T09:00:51.007Z,801.00
2023-03-17T09:04:50.512Z,772.00
2023-03-17T09:08:50.692Z,778.00
2023-03-17T09:12:50.722Z,740.00
2023-03-17T09:16:51.195Z,724.00
2023-03-17T09:20:50.963Z,684.00
2023-03-17T09:24:51.249Z,710.00
2023-03-17T09:28:51.724Z,690.00
2023-03-17T09:32:51.372Z,692.00
2023-03-17T09:36:51.708Z,684.00
2023-03-17T09:40:51.698Z,670.00
2023-03-17T09:44:54.924Z,651.00
2023-03-17T09:48:51.439Z,663.00
2023-03-17T09:52:51.702Z,709.00
2023-03-17T09:56:51.433Z,694.00
2023-03-17T10:00:51.750Z,677.00
2023-03-17T10:04:51.405Z,676.00
2023-03-17T10:08:51.709Z,653.00
2023-03-17T10:12:51.713Z,668.00
2023-03-17T10:16:51.800Z,674.00
2023-03-17T10:20:51.856Z,698.00
2023-03-17T10:24:51.710Z,732.00
2023-03-17T10:28:51.710Z,571.00
2023-03-17T10:32:51.870Z,593.00
2023-03-17T10:36:51.739Z,582.00
2023-03-17T10:40:51.714Z,581.00
2023-03-17T10:44:51.741Z,570.00
2023-03-17T10:48:51.743Z,557.00
2023-03-17T10:52:51.729Z,535.00
2023-03-17T10:56:51.380Z,531.00
2023-03-17T11:00:51.752Z,518.00
2023-03-17T11:04:51.756Z,505.00
2023-03-17T11:08:51.762Z,495.00
2023-03-17T11:12:51.267Z,485.00
2023-03-17T11:16:51.299Z,485.00
2023-03-17T11:20:51.248Z,480.00
2023-03-17T11:24:51.240Z,478.00
2023-03-17T11:28:51.268Z,476.00
2023-03-17T11:32:51.304Z,475.00
2023-03-17T11:36:51.264Z,471.00
2023-03-17T11:40:51.248Z,467.00
2023-03-17T11:44:51.745Z,465.00
2023-03-17T11:48:51.246Z,449.00
2023-03-17T11:52:51.275Z,454.00
2023-03-17T11:56:51.252Z,453.00
2023-03-17T12:00:51.263Z,446.00
2023-03-17T12:04:51.339Z,439.00
2023-03-17T12:08:52.268Z,437.00
2023-03-17T12:12:51.178Z,439.00
2023-03-17T12:16:51.749Z,437.00
2023-03-17T12:20:51.760Z,433.00
2023-03-17T12:24:51.779Z,434.00
2023-03-17T12:28:51.519Z,433.00
2023-03-17T12:32:51.844Z,431.00
2023-03-17T12:36:51.759Z,439.00
2023-03-17T12:40:52.283Z,434.00
2023-03-17T12:44:51.849Z,438.00
2023-03-17T12:48:51.927Z,437.00
2023-03-17T12:52:52.007Z,438.00
2023-03-17T12:56:52.287Z,435.00
2023-03-17T13:00:52.178Z,438.00
2023-03-17T13:04:52.272Z,443.00
2023-03-17T13:08:52.350Z,438.00
2023-03-17T13:12:52.794Z,431.00
2023-03-17T13:20:52.779Z,444.00
2023-03-17T13:24:52.462Z,453.00
2023-03-17T13:28:52.515Z,457.00
2023-03-17T17:00:55.630Z,410.00
2023-03-17T17:04:55.750Z,407.00
2023-03-17T17:08:55.893Z,407.00
2023-03-17T17:12:56.042Z,411.00
2023-03-17T17:16:56.171Z,411.00
2023-03-17T17:20:56.314Z,414.00
2023-03-17T17:24:56.377Z,413.00
2023-03-17T17:28:56.453Z,410.00
2023-03-17T17:32:56.458Z,415.00
2023-03-17T17:36:56.504Z,419.00
2023-03-17T17:40:56.711Z,414.00
2023-03-17T17:44:56.907Z,418.00
2023-03-17T17:48:56.972Z,418.00
2023-03-17T17:52:57.098Z,420.00
2023-03-17T17:56:57.250Z,427.00
2023-03-17T18:00:57.559Z,428.00
2023-03-17T18:04:57.574Z,420.00
2023-03-17T18:08:57.650Z,421.00
2023-03-17T18:12:57.791Z,417.00
2023-03-17T18:16:57.986Z,420.00
2023-03-17T18:20:58.111Z,420.00
2023-03-17T18:24:58.435Z,420.00
2023-03-17T18:28:58.419Z,420.00
2023-03-17T18:32:58.653Z,422.00
2023-03-17T18:36:58.736Z,423.00
2023-03-17T18:40:58.916Z,420.00
2023-03-17T18:44:58.949Z,421.00
2023-03-17T18:48:58.993Z,421.00
2023-03-17T18:52:59.057Z,426.00
2023-03-17T18:56:59.212Z,428.00
2023-03-17T19:00:59.439Z,424.00
2023-03-17T19:04:59.474Z,421.00
2023-03-17T19:08:59.478Z,424.00
2023-03-17T19:12:59.508Z,420.00
2023-03-17T21:09:03.988Z,419.00
2023-03-17T21:13:04.244Z,420.00
2023-03-17T21:17:04.467Z,417.00
2023-03-17T21:21:11.466Z,419.00
2023-03-17T21:25:11.493Z,420.00
2023-03-17T21:29:04.865Z,419.00
2023-03-17T21:33:11.529Z,420.00
2023-03-17T21:37:11.599Z,422.00
2023-03-17T21:41:12.038Z,419.00
2023-03-17T21:45:11.941Z,421.00
2023-03-17T21:49:12.603Z,425.00
2023-03-17T21:53:13.596Z,425.00
2023-03-17T21:57:05.927Z,422.00
2023-03-17T22:01:06.025Z,424.00
2023-03-17T22:05:05.972Z,430.00
2023-03-17T22:09:12.611Z,424.00
2023-03-17T22:13:13.632Z,421.00
2023-03-17T22:17:06.420Z,426.00
2023-03-17T22:21:06.574Z,418.00
2023-03-17T22:25:06.743Z,419.00
2023-03-17T22:29:06.760Z,422.00
2023-03-17T22:33:06.856Z,418.00
2023-03-17T22:37:06.783Z,421.00
2023-03-17T22:41:06.788Z,417.00
2023-03-17T22:45:06.845Z,416.00
2023-03-17T22:49:06.806Z,415.00
2023-03-17T22:53:06.808Z,415.00
2023-03-17T22:57:06.900Z,413.00
2023-03-17T23:01:07.190Z,418.00
2023-03-17T23:05:07.404Z,420.00
2023-03-17T23:09:07.596Z,419.00
2023-03-17T23:13:07.831Z,417.00
2023-03-17T23:17:08.110Z,411.00
2023-03-17T23:21:08.298Z,411.00
2023-03-17T23:25:08.489Z,411.00
2023-03-17T23:29:08.721Z,412.00
2023-03-17T23:33:09.026Z,414.00
2023-03-17T23:37:09.239Z,417.00
2023-03-17T23:41:09.450Z,413.00
2023-03-17T23:45:09.636Z,410.00
2023-03-17T23:49:09.947Z,411.00
2023-03-17T23:53:10.167Z,413.00
2023-03-17T23:57:10.382Z,408.00
